No particular awareness of the weather is required.    There are no Weather-warnings


Meteo18 Weather Cam more information Meteo18 Weather Cam


Thunder radar more information blitzortung!


Rain radar more information rain snow radar


Visit our other weather sites:

Template documentation
and downloads

And another site



Weather Underground History page Text

Daily Summary for November 3, 2017 Units:  English    Metric   Both
« Previous Day
Next Day »
Daily Weekly Monthly Yearly Custom
  High: Low: Average:
Temperature: 63.9 °F 41.9 °F 54 °F
Dew Point: 53.2 °F 40.8 °F 49.5 °F
Humidity: 100 % 65 % 86 %
Wind Speed: 6 mph 0 mph 1.1 mph
Wind Gust: 8 mph - -
Wind:- - ESE
Pressure: 30.1 in 29.9 in -
Precipitation: 0 in    
Historical Graphs
 
 
Tabular Data for November 3, 2017
Time Temperature Dew Point Pressure Wind Wind Speed Wind Gust Humidity Rainfall Rate (Hourly)
00:02 49.5 °F 48.4 °F 30.1 in Calm   1 mph 96 % 0 in
00:07 49.5 °F 48.4 °F 30.1 in NNE 2 mph 2 mph 96 % 0 in
00:12 48.9 °F 47.5 °F 30.1 in North 2 mph 2 mph 95 % 0 in
00:17 49.1 °F 48 °F 30.1 in North 2 mph 3 mph 96 % 0 in
00:22 48.9 °F 47.8 °F 30.1 in North 1 mph 3 mph 96 % 0 in
00:27 49.1 °F 48 °F 30.1 in Calm   3 mph 96 % 0 in
00:32 49.1 °F 48 °F 30.1 in Calm   2 mph 96 % 0 in
00:37 48.7 °F 47.7 °F 30.1 in Calm   2 mph 96 % 0 in
00:42 48.7 °F 47.7 °F 30.1 in NNW 1 mph 1 mph 96 % 0 in
00:47 48.9 °F 47.8 °F 30.1 in NNW 1 mph 2 mph 96 % 0 in
00:52 49.1 °F 48 °F 30.1 in Calm   2 mph 96 % 0 in
00:57 48.7 °F 47.7 °F 30.1 in NNW 1 mph 2 mph 96 % 0 in
01:02 48.7 °F 47.7 °F 30.1 in NNW 1 mph 2 mph 96 % 0 in
01:07 49.1 °F 48.2 °F 30.1 in NNW 1 mph 2 mph 97 % 0 in
01:12 48.7 °F 47.7 °F 30.1 in North 1 mph 2 mph 96 % 0 in
01:17 48.6 °F 47.5 °F 30.1 in NNW 1 mph 2 mph 96 % 0 in
01:22 48.9 °F 48 °F 30.1 in NNW 2 mph 2 mph 97 % 0 in
01:27 49.1 °F 48.2 °F 30.1 in Calm   2 mph 97 % 0 in
01:37 48.7 °F 47.7 °F 30.1 in Calm   2 mph 96 % 0 in
01:42 48.6 °F 47.5 °F 30.1 in Calm   1 mph 96 % 0 in
01:47 48 °F 46.9 °F 30.1 in Calm   1 mph 96 % 0 in
01:57 47.3 °F 46.2 °F 30.1 in WNW 1 mph 1 mph 96 % 0 in
02:02 47.3 °F 46.2 °F 30.1 in Calm   1 mph 96 % 0 in
02:07 47.8 °F 46.9 °F 30.1 in Calm   1 mph 97 % 0 in
02:12 48.4 °F 47.5 °F 30.1 in Calm   1 mph 97 % 0 in
02:17 48.7 °F 47.8 °F 30.1 in Calm   1 mph 97 % 0 in
02:22 48.7 °F 47.8 °F 30.1 in Calm   1 mph 97 % 0 in
02:32 48.7 °F 47.8 °F 30.1 in Calm   1 mph 97 % 0 in
02:37 48.4 °F 47.3 °F 30.1 in Calm   1 mph 96 % 0 in
02:42 47.1 °F 45.7 °F 30.1 in Calm   1 mph 95 % 0 in
02:47 46.9 °F 45.9 °F 30.1 in Calm     96 % 0 in
02:52 47.5 °F 46.8 °F 30.1 in Calm     97 % 0 in
02:57 46.8 °F 45.7 °F 30.1 in Calm   1 mph 96 % 0 in
03:02 46.9 °F 45.9 °F 30.1 in WNW 1 mph 1 mph 96 % 0 in
03:07 47.5 °F 46.8 °F 30.1 in Calm   1 mph 97 % 0 in
03:12 47.5 °F 46.8 °F 30.1 in Calm   1 mph 97 % 0 in
03:17 47.1 °F 46.4 °F 30.1 in North 1 mph 1 mph 97 % 0 in
03:22 47.5 °F 46.8 °F 30.1 in North 1 mph 2 mph 97 % 0 in
03:27 47.7 °F 46.9 °F 30.1 in North 1 mph 2 mph 97 % 0 in
03:32 47.5 °F 46.8 °F 30.1 in North 1 mph 2 mph 97 % 0 in
03:37 47.5 °F 46.8 °F 30.1 in Calm   2 mph 97 % 0 in
03:42 47.7 °F 47.7 °F 30.1 in Calm   2 mph 100 % 0 in
03:47 47.7 °F 47.7 °F 30.1 in Calm   2 mph 100 % 0 in
03:52 47.7 °F 47.7 °F 30.1 in Calm   1 mph 100 % 0 in
08:17 42.8 °F 42.1 °F 30 in Calm   -998.7 mph 97 % 0 in
08:22 42.6 °F 41.9 °F 30 in NNE 1 mph 1 mph 97 % 0 in
08:27 41.9 °F 40.8 °F 30 in Calm   1 mph 96 % 0 in
08:32 42.4 °F 41.7 °F 30 in Calm   1 mph 97 % 0 in
08:37 43.2 °F 42.4 °F 30 in Calm   1 mph 97 % 0 in
08:42 43.5 °F 42.8 °F 30 in Calm     97 % 0 in
08:47 43.9 °F 43.3 °F 30 in Calm     98 % 0 in
08:52 43.9 °F 43.2 °F 30 in Calm     97 % 0 in
08:57 44.1 °F 43.3 °F 30 in Calm   1 mph 97 % 0 in
09:02 44.4 °F 43.7 °F 30 in Calm   1 mph 97 % 0 in
09:07 44.6 °F 43.9 °F 30 in Calm   1 mph 97 % 0 in
09:12 45 °F 44.2 °F 30 in Calm   1 mph 97 % 0 in
09:17 45.1 °F 44.4 °F 30 in Calm   1 mph 97 % 0 in
09:22 45.3 °F 44.6 °F 30 in Calm     97 % 0 in
09:27 45.3 °F 44.6 °F 30 in Calm     97 % 0 in
09:37 45.7 °F 45 °F 30 in Calm     97 % 0 in
09:42 46.4 °F 45.7 °F 30 in Calm     97 % 0 in
09:47 46.8 °F 46.2 °F 30 in East 1 mph   98 % 0 in
09:52 46.9 °F 46.4 °F 30 in ENE 2 mph 2 mph 98 % 0 in
10:02 47.7 °F 46.9 °F 30 in ENE 1 mph 3 mph 97 % 0 in
10:07 48.4 °F 47.8 °F 30 in East 2 mph 3 mph 98 % 0 in
10:12 48.6 °F 48 °F 30 in ENE 1 mph 3 mph 98 % 0 in
10:17 48.9 °F 48.4 °F 30 in ENE 1 mph 4 mph 98 % 0 in
10:22 49.3 °F 48.7 °F 30 in Calm   4 mph 98 % 0 in
10:27 49.5 °F 48.9 °F 30 in Calm   4 mph 98 % 0 in
10:32 49.5 °F 48.6 °F 30 in Calm   2 mph 97 % 0 in
10:37 49.8 °F 48.9 °F 30 in Calm   2 mph 97 % 0 in
10:42 50.4 °F 49.5 °F 30 in Calm   2 mph 97 % 0 in
10:47 50.7 °F 50.2 °F 30 in Calm   2 mph 98 % 0 in
10:52 51.3 °F 50.4 °F 30 in Calm   1 mph 97 % 0 in
10:57 51.4 °F 50.5 °F 30 in Calm     97 % 0 in
11:02 51.6 °F 50.7 °F 30 in Calm     97 % 0 in
11:07 52 °F 51.1 °F 30 in NE 2 mph   97 % 0 in
11:12 52.3 °F 51.4 °F 30 in East 1 mph 3 mph 97 % 0 in
11:17 52.5 °F 51.4 °F 30 in NE 2 mph 4 mph 96 % 0 in
11:22 53.2 °F 52.3 °F 30 in Calm   4 mph 97 % 0 in
11:27 53.6 °F 52.5 °F 30 in Calm   4 mph 96 % 0 in
11:32 54.1 °F 53.1 °F 30 in Calm   3 mph 96 % 0 in
11:37 54.3 °F 52.7 °F 30 in ESE 1 mph 3 mph 94 % 0 in
11:42 54.9 °F 53.2 °F 30 in NE 3 mph 3 mph 94 % 0 in
11:47 55.2 °F 52.7 °F 30 in NNE 1 mph 4 mph 91 % 0 in
11:52 55.8 °F 52.9 °F 30 in NE 2 mph 4 mph 90 % 0 in
11:57 55.9 °F 52.5 °F 30 in ENE 2 mph 4 mph 88 % 0 in
12:07 56.7 °F 52.5 °F 30 in NE 3 mph 4 mph 86 % 0 in
12:12 57 °F 52.5 °F 30 in NNW 2 mph 5 mph 85 % 0 in
12:17 57.6 °F 52.7 °F 30 in ENE 3 mph 5 mph 84 % 0 in
12:22 57.9 °F 52.7 °F 30 in NE 3 mph 5 mph 83 % 0 in
12:27 58.3 °F 52.5 °F 30 in NE 1 mph 5 mph 81 % 0 in
12:32 58.6 °F 52.2 °F 30 in ESE 2 mph 5 mph 79 % 0 in
12:37 59.2 °F 52.3 °F 30 in East 4 mph 4 mph 78 % 0 in
12:42 59.7 °F 52.2 °F 30 in East 3 mph 5 mph 76 % 0 in
12:47 60.1 °F 51.4 °F 30 in ENE 2 mph 6 mph 73 % 0 in
12:52 60.1 °F 51.4 °F 30 in ESE 2 mph 6 mph 73 % 0 in
12:57 60.4 °F 51.8 °F 30 in Calm   6 mph 73 % 0 in
13:02 60.6 °F 51.6 °F 30 in Calm   6 mph 72 % 0 in
13:07 61.3 °F 51.8 °F 30 in Calm   6 mph 71 % 0 in
13:12 61.5 °F 52 °F 30 in Calm   5 mph 71 % 0 in
13:17 61.9 °F 51.6 °F 30 in Calm   5 mph 69 % 0 in
13:22 61.9 °F 51.6 °F 30 in East 1 mph 5 mph 69 % 0 in
13:27 61.9 °F 51.6 °F 30 in SE 3 mph 4 mph 69 % 0 in
13:32 62.1 °F 51.8 °F 30 in ESE 4 mph 5 mph 69 % 0 in
13:37 62.2 °F 52 °F 30 in East 2 mph 6 mph 69 % 0 in
13:42 62.2 °F 51.6 °F 30 in ENE 6 mph 6 mph 68 % 0 in
13:47 62.4 °F 51.8 °F 30 in NE 3 mph 8 mph 68 % 0 in
13:52 62.6 °F 51.4 °F 30 in ENE 2 mph 8 mph 67 % 0 in
14:02 62.8 °F 51.6 °F 30 in ENE 4 mph 7 mph 67 % 0 in
14:07 63.1 °F 51.6 °F 30 in ENE 3 mph 6 mph 66 % 0 in
14:12 63.3 °F 51.8 °F 29.9 in Calm   6 mph 66 % 0 in
14:17 63.3 °F 51.8 °F 29.9 in East 4 mph 6 mph 66 % 0 in
14:22 63.7 °F 52.2 °F 29.9 in East 4 mph 6 mph 66 % 0 in
14:27 63.5 °F 52 °F 29.9 in ENE 3 mph 6 mph 66 % 0 in
14:32 63.7 °F 52.2 °F 29.9 in East 4 mph 6 mph 66 % 0 in
14:37 63.7 °F 51.6 °F 29.9 in ENE 2 mph 6 mph 65 % 0 in
14:42 63.9 °F 51.8 °F 29.9 in Calm   6 mph 65 % 0 in
14:47 63.7 °F 51.6 °F 29.9 in NNE 2 mph 6 mph 65 % 0 in
14:52 63.7 °F 51.6 °F 29.9 in East 3 mph 6 mph 65 % 0 in
14:57 63.3 °F 51.4 °F 29.9 in ENE 2 mph 6 mph 65 % 0 in
15:02 63.1 °F 51.3 °F 29.9 in Calm   6 mph 65 % 0 in
15:07 63 °F 51.8 °F 29.9 in NE 2 mph 6 mph 67 % 0 in
15:12 62.6 °F 51.4 °F 29.9 in East 1 mph 4 mph 67 % 0 in
15:17 62.6 °F 51.4 °F 29.9 in ENE 1 mph 3 mph 67 % 0 in
15:22 62.6 °F 51.4 °F 29.9 in ENE 1 mph 3 mph 67 % 0 in
15:27 62.4 °F 51.3 °F 29.9 in East 1 mph 3 mph 67 % 0 in
15:32 62.4 °F 51.3 °F 29.9 in ENE 1 mph 3 mph 67 % 0 in
15:37 62.4 °F 51.8 °F 29.9 in Calm   3 mph 68 % 0 in
15:42 62.4 °F 51.8 °F 29.9 in ENE 1 mph 2 mph 68 % 0 in
15:47 62.2 °F 52 °F 29.9 in Calm   2 mph 69 % 0 in
15:52 62.2 °F 52.3 °F 29.9 in NE 1 mph 2 mph 70 % 0 in
15:57 62.1 °F 52.5 °F 29.9 in NE 4 mph 4 mph 71 % 0 in
16:02 61.5 °F 52.3 °F 29.9 in NE 3 mph 4 mph 72 % 0 in
16:07 61.3 °F 52.2 °F 29.9 in NE 1 mph 4 mph 72 % 0 in
16:12 61.2 °F 52.5 °F 29.9 in NE 3 mph 5 mph 73 % 0 in
16:17 60.8 °F 52.5 °F 29.9 in NE 3 mph 5 mph 74 % 0 in
16:22 60.6 °F 52.3 °F 29.9 in NNE 4 mph 5 mph 74 % 0 in
16:27 60.4 °F 52.5 °F 29.9 in NE 4 mph 5 mph 75 % 0 in
16:32 60.3 °F 52.3 °F 29.9 in NE 3 mph 6 mph 75 % 0 in
16:37 60.1 °F 52.2 °F 29.9 in NNE 3 mph 6 mph 75 % 0 in
16:42 59.7 °F 52.2 °F 29.9 in NE 3 mph 5 mph 76 % 0 in
16:52 59.5 °F 52.3 °F 29.9 in NE 2 mph 5 mph 77 % 0 in
16:57 59.2 °F 52 °F 29.9 in NNE 3 mph 4 mph 77 % 0 in
17:02 58.8 °F 52 °F 29.9 in NE 4 mph 6 mph 78 % 0 in
17:12 58.6 °F 51.8 °F 29.9 in NNE 2 mph 6 mph 78 % 0 in
17:17 58.6 °F 51.8 °F 29.9 in NE 1 mph 6 mph 78 % 0 in
17:22 58.5 °F 51.6 °F 29.9 in NE 3 mph 6 mph 78 % 0 in
17:27 58.5 °F 51.6 °F 29.9 in NE 1 mph 4 mph 78 % 0 in
17:32 58.3 °F 51.8 °F 29.9 in Calm   4 mph 79 % 0 in
17:37 57.9 °F 51.4 °F 29.9 in NNE 1 mph 4 mph 79 % 0 in
17:42 57.7 °F 51.6 °F 29.9 in Calm   4 mph 80 % 0 in
17:47 57.6 °F 51.4 °F 29.9 in NE 2 mph 3 mph 80 % 0 in
17:52 57.4 °F 51.6 °F 29.9 in NE 1 mph 3 mph 81 % 0 in
17:57 57.4 °F 51.6 °F 29.9 in NNE 1 mph 3 mph 81 % 0 in
18:02 57.4 °F 51.6 °F 29.9 in NE 1 mph 3 mph 81 % 0 in
18:07 57.2 °F 51.4 °F 29.9 in Calm   3 mph 81 % 0 in
18:12 57 °F 51.3 °F 29.9 in Calm   3 mph 81 % 0 in
18:22 56.7 °F 51.3 °F 29.9 in NE 4 mph 4 mph 82 % 0 in
18:32 57 °F 51.6 °F 29.9 in NNE 4 mph 6 mph 82 % 0 in
18:37 56.8 °F 51.4 °F 29.9 in ENE 4 mph 8 mph 82 % 0 in
18:47 56.8 °F 51.8 °F 29.9 in NE 1 mph 7 mph 83 % 0 in
18:52 56.8 °F 51.8 °F 29.9 in NE 2 mph 5 mph 83 % 0 in
18:57 56.8 °F 51.8 °F 29.9 in NE 2 mph 5 mph 83 % 0 in
19:02 56.8 °F 51.8 °F 29.9 in NE 3 mph 5 mph 83 % 0 in
19:07 57 °F 51.6 °F 29.9 in NE 2 mph 5 mph 82 % 0 in
19:12 57 °F 51.6 °F 29.9 in NNE 2 mph 6 mph 82 % 0 in
19:17 56.8 °F 51.4 °F 29.9 in NE 3 mph 6 mph 82 % 0 in
19:22 56.8 °F 51.4 °F 29.9 in NNE 2 mph 4 mph 82 % 0 in
19:27 56.8 °F 51.4 °F 29.9 in NE 1 mph 4 mph 82 % 0 in
19:32 56.8 °F 51.4 °F 29.9 in NE 2 mph 4 mph 82 % 0 in
19:37 56.7 °F 51.3 °F 29.9 in NNE 3 mph 4 mph 82 % 0 in
19:42 56.3 °F 50.9 °F 29.9 in NE 1 mph 3 mph 82 % 0 in
19:47 56.1 °F 51.1 °F 29.9 in NE 1 mph 3 mph 83 % 0 in
19:57 56.1 °F 51.1 °F 29.9 in Calm   4 mph 83 % 0 in
20:02 55.9 °F 50.9 °F 29.9 in Calm   3 mph 83 % 0 in
20:07 55.9 °F 50.9 °F 29.9 in Calm   3 mph 83 % 0 in
20:12 55.8 °F 50.7 °F 29.9 in Calm   2 mph 83 % 0 in
20:22 55.8 °F 50.7 °F 29.9 in ENE 2 mph 2 mph 83 % 0 in
20:27 55.8 °F 50.4 °F 29.9 in ENE 1 mph 3 mph 82 % 0 in
20:32 55.6 °F 50.2 °F 29.9 in Calm   3 mph 82 % 0 in
20:37 55.6 °F 50.5 °F 29.9 in NE 1 mph 3 mph 83 % 0 in
20:42 55.2 °F 50.2 °F 29.9 in Calm   3 mph 83 % 0 in
20:52 54.9 °F 49.8 °F 29.9 in Calm   3 mph 83 % 0 in
20:57 54.7 °F 50 °F 29.9 in Calm   2 mph 84 % 0 in
21:02 54.3 °F 49.6 °F 29.9 in NE 1 mph 2 mph 84 % 0 in
21:07 54.1 °F 49.5 °F 29.9 in Calm   3 mph 84 % 0 in
21:12 54 °F 49.3 °F 29.9 in Calm   3 mph 84 % 0 in
21:17 53.8 °F 49.5 °F 29.9 in Calm   3 mph 85 % 0 in
21:22 53.6 °F 49.3 °F 29.9 in Calm     85 % 0 in
21:27 53.4 °F 49.3 °F 29.9 in Calm     86 % 0 in
21:32 53.2 °F 49.1 °F 29.9 in Calm     86 % 0 in
21:42 53.1 °F 49.3 °F 29.9 in Calm     87 % 0 in
21:47 53.1 °F 48.9 °F 29.9 in Calm     86 % 0 in
21:57 52.5 °F 48.7 °F 29.9 in Calm     87 % 0 in
22:02 52.2 °F 48.4 °F 29.9 in Calm     87 % 0 in
22:07 52.2 °F 48.7 °F 29.9 in Calm     88 % 0 in
22:12 52.2 °F 49.1 °F 29.9 in Calm     89 % 0 in
22:17 52.3 °F 48.9 °F 29.9 in North 1 mph 2 mph 88 % 0 in
22:22 52.2 °F 48.7 °F 29.9 in Calm   2 mph 88 % 0 in
22:27 51.6 °F 47.8 °F 29.9 in Calm   2 mph 87 % 0 in
22:32 51.3 °F 48.2 °F 29.9 in Calm   1 mph 89 % 0 in
22:37 51.3 °F 48.2 °F 29.9 in Calm   1 mph 89 % 0 in
22:47 51.1 °F 48 °F 29.9 in Calm   2 mph 89 % 0 in
22:52 51.3 °F 48.4 °F 29.9 in Calm   2 mph 90 % 0 in
23:02 50.5 °F 47.7 °F 29.9 in Calm   1 mph 90 % 0 in
23:07 50.7 °F 48.2 °F 29.9 in North 1 mph 1 mph 91 % 0 in
23:12 50.9 °F 48 °F 29.9 in NNE 2 mph 2 mph 90 % 0 in
23:22 51.3 °F 48.4 °F 29.9 in Calm   4 mph 90 % 0 in
23:27 51.1 °F 48 °F 29.9 in Calm   4 mph 89 % 0 in
23:32 50.5 °F 47.5 °F 29.9 in Calm   3 mph 89 % 0 in
23:37 50.4 °F 47.5 °F 29.9 in NW 1 mph 2 mph 90 % 0 in
23:42 50.4 °F 47.8 °F 29.9 in Calm   1 mph 91 % 0 in
23:47 50.7 °F 48.2 °F 29.9 in NW 1 mph 1 mph 91 % 0 in
23:52 50.2 °F 47.7 °F 29.9 in WNW 2 mph 2 mph 91 % 0 in
23:57 49.6 °F 47.5 °F 29.9 in WNW 1 mph 2 mph 92 % 0 in
Meteo18
Compliments of Weather Underground - 4 mb

Script developed by  Jim McMurry - jmcmurry@mwt.net Adapted for the template by  Wim van der Kuil - Leuven-Template.eu

You find our weather info also at:

European Weather Network

Weather Underground

Equipment we use:

Weather-station
Davis Vue

Weather-program
Meteohub

Weather-server
Raspberry PI 2 B+

Provider
1 and 1

Davis Vue

Meteohub

Raspberry PI 2 B+

1 and 1